createdAt,value
2023-03-02T00:01:34.408Z,37.13
2023-03-02T00:04:03.963Z,32.78
2023-03-02T00:06:32.956Z,25.88
2023-03-02T00:09:00.913Z,32.80
2023-03-02T00:11:30.473Z,27.38
2023-03-02T00:13:57.516Z,32.15
2023-03-02T00:16:24.266Z,30.20
2023-03-02T00:18:50.939Z,28.17
2023-03-02T00:21:17.632Z,30.20
2023-03-02T00:23:44.967Z,30.88
2023-03-02T00:26:11.712Z,25.08
2023-03-02T00:28:38.445Z,27.58
2023-03-02T00:31:06.347Z,36.13
2023-03-02T00:33:34.803Z,35.00
2023-03-02T00:36:02.393Z,26.40
2023-03-02T00:38:29.369Z,21.23
2023-03-02T00:40:56.455Z,31.00
2023-03-02T00:43:27.423Z,30.13
2023-03-02T00:45:55.345Z,28.50
2023-03-02T00:48:22.418Z,40.95
2023-03-02T00:50:49.187Z,43.88
2023-03-02T00:53:15.937Z,27.00
2023-03-02T00:55:42.523Z,33.47
2023-03-02T00:58:09.395Z,36.17
2023-03-02T01:00:37.554Z,33.50
2023-03-02T01:03:04.623Z,34.17
2023-03-02T01:05:31.392Z,32.53
2023-03-02T01:07:58.241Z,29.88
2023-03-02T01:10:24.987Z,32.95
2023-03-02T01:12:51.627Z,25.73
2023-03-02T01:15:18.390Z,32.38
2023-03-02T01:17:46.910Z,30.10
2023-03-02T01:20:14.561Z,27.30
2023-03-02T01:22:43.958Z,31.25
2023-03-02T01:25:13.763Z,26.05
2023-03-02T01:27:40.835Z,31.33
2023-03-02T01:30:08.467Z,36.78
2023-03-02T01:32:35.954Z,35.13
2023-03-02T01:35:07.008Z,41.45
2023-03-02T01:37:34.149Z,25.65
2023-03-02T01:40:05.819Z,39.70
2023-03-02T01:42:41.834Z,41.38
2023-03-02T01:45:40.631Z,23.30
2023-03-02T01:48:11.232Z,39.30
2023-03-02T01:50:37.893Z,42.00
2023-03-02T01:53:06.790Z,35.15
2023-03-02T01:55:35.216Z,37.00
2023-03-02T01:58:04.268Z,49.13
2023-03-02T02:00:37.014Z,36.97
2023-03-02T02:03:10.897Z,45.10
2023-03-02T02:05:41.075Z,44.03
2023-03-02T02:08:09.020Z,50.30
2023-03-02T02:10:36.050Z,52.03
2023-03-02T02:13:03.133Z,41.67
2023-03-02T02:15:30.305Z,46.70
2023-03-02T02:17:57.010Z,35.20
2023-03-02T02:20:45.585Z,47.40
2023-03-02T02:23:27.315Z,45.42
2023-03-02T02:25:55.515Z,49.75
2023-03-02T02:28:25.351Z,50.88
2023-03-02T02:31:06.732Z,38.05
2023-03-02T02:33:35.994Z,40.70
2023-03-02T02:36:08.006Z,35.28
2023-03-02T02:38:36.531Z,39.45
2023-03-02T02:41:14.544Z,43.45
2023-03-02T02:43:41.433Z,40.47
2023-03-02T02:46:11.679Z,47.35
2023-03-02T02:48:39.398Z,56.00
2023-03-02T02:51:09.371Z,53.90
2023-03-02T02:53:48.647Z,46.45
2023-03-02T02:56:16.716Z,39.97
2023-03-02T02:58:50.900Z,38.47
2023-03-02T03:01:26.400Z,44.70
2023-03-02T03:03:56.835Z,46.83
2023-03-02T03:06:30.613Z,34.47
2023-03-02T03:09:00.819Z,38.83
2023-03-02T03:11:30.365Z,40.75
2023-03-02T03:14:11.083Z,37.55
2023-03-02T03:16:41.233Z,30.33
2023-03-02T03:19:19.616Z,38.83
2023-03-02T03:21:49.089Z,42.83
2023-03-02T03:24:15.992Z,29.83
2023-03-02T03:26:42.676Z,38.63
2023-03-02T03:29:09.474Z,44.30
2023-03-02T03:31:36.151Z,33.95
2023-03-02T03:34:02.896Z,40.72
2023-03-02T03:36:32.324Z,38.72
2023-03-02T03:38:59.492Z,41.53
2023-03-02T03:41:26.955Z,32.03
2023-03-02T03:43:54.826Z,30.25
2023-03-02T03:46:21.747Z,37.88
2023-03-02T03:48:48.614Z,24.05
2023-03-02T03:51:15.350Z,34.47
2023-03-02T03:53:44.248Z,30.55
2023-03-02T03:56:10.972Z,34.70
2023-03-02T03:58:37.742Z,32.05
2023-03-02T04:01:04.979Z,31.92
2023-03-02T04:03:31.764Z,23.30
2023-03-02T04:05:58.421Z,28.27
2023-03-02T04:08:27.167Z,33.15
2023-03-02T04:10:53.912Z,30.45
2023-03-02T04:13:20.633Z,36.22
2023-03-02T04:15:47.494Z,36.97
2023-03-02T04:18:14.113Z,27.35
2023-03-02T04:20:40.965Z,24.70
2023-03-02T04:23:07.650Z,31.33
2023-03-02T04:25:35.401Z,32.83
2023-03-02T04:28:02.170Z,33.25
2023-03-02T04:30:28.896Z,32.20
2023-03-02T04:32:57.785Z,33.03
2023-03-02T04:35:25.557Z,24.77
2023-03-02T04:37:52.345Z,31.35
2023-03-02T04:40:19.102Z,32.05
2023-03-02T04:42:46.166Z,35.97
2023-03-02T04:45:13.618Z,34.05
2023-03-02T04:47:40.832Z,40.92
2023-03-02T04:50:09.428Z,31.00
2023-03-02T04:52:36.499Z,49.70
2023-03-02T04:55:03.650Z,33.90
2023-03-02T04:57:31.436Z,35.05
2023-03-02T04:59:58.333Z,28.80
2023-03-02T05:02:25.153Z,30.08
2023-03-02T05:04:51.925Z,28.23
2023-03-02T05:07:19.010Z,37.88
2023-03-02T05:09:45.789Z,39.85
2023-03-02T05:12:12.467Z,32.55
2023-03-02T05:14:39.106Z,34.35
2023-03-02T05:17:05.856Z,37.10
2023-03-02T05:19:32.674Z,32.38
2023-03-02T05:21:59.567Z,28.70
2023-03-02T05:24:26.565Z,33.75
2023-03-02T05:26:53.281Z,39.80
2023-03-02T05:29:20.020Z,32.15
2023-03-02T05:31:46.849Z,24.88
2023-03-02T05:34:16.484Z,27.95
2023-03-02T05:36:45.235Z,41.17
2023-03-02T05:39:12.744Z,30.83
2023-03-02T05:41:40.034Z,34.40
2023-03-02T05:44:09.628Z,36.50
2023-03-02T05:46:36.845Z,40.67
2023-03-02T05:49:03.965Z,31.58
2023-03-02T05:51:30.705Z,30.40
2023-03-02T05:53:57.458Z,39.92
2023-03-02T05:56:24.280Z,35.85
2023-03-02T05:58:51.036Z,41.03
2023-03-02T06:01:17.717Z,33.42
2023-03-02T06:03:44.459Z,24.67
2023-03-02T06:06:14.244Z,29.52
2023-03-02T06:08:42.169Z,34.45
2023-03-02T06:11:09.691Z,31.65
2023-03-02T06:13:36.715Z,31.45
2023-03-02T06:16:03.826Z,34.75
2023-03-02T06:18:30.687Z,48.10
2023-03-02T06:20:57.436Z,34.22
2023-03-02T06:23:24.162Z,32.30
2023-03-02T06:25:50.938Z,33.53
2023-03-02T06:28:20.123Z,23.40
2023-03-02T06:30:52.282Z,38.90
2023-03-02T06:33:21.376Z,30.20
2023-03-02T06:35:49.007Z,47.40
2023-03-02T06:38:16.655Z,48.38
2023-03-02T06:40:43.467Z,43.08
2023-03-02T06:43:10.475Z,32.95
2023-03-02T06:45:37.879Z,33.83
2023-03-02T06:48:05.429Z,30.00
2023-03-02T06:50:32.957Z,29.52
2023-03-02T06:53:02.724Z,35.53
2023-03-02T06:55:30.466Z,32.75
2023-03-02T06:57:57.056Z,22.17
2023-03-02T07:00:28.297Z,33.35
2023-03-02T07:02:56.396Z,38.28
2023-03-02T07:05:24.418Z,35.95
2023-03-02T07:07:51.541Z,31.83
2023-03-02T07:10:18.359Z,28.77
2023-03-02T07:12:44.988Z,36.63
2023-03-02T07:15:14.302Z,35.80
2023-03-02T07:17:43.620Z,35.03
2023-03-02T07:20:12.850Z,20.00
2023-03-02T07:22:40.577Z,28.95
2023-03-02T07:25:09.429Z,33.42
2023-03-02T07:27:36.858Z,29.08
2023-03-02T07:30:05.298Z,34.08
2023-03-02T07:32:32.208Z,32.72
2023-03-02T07:34:58.853Z,33.60
2023-03-02T07:37:26.603Z,27.77
2023-03-02T07:39:53.333Z,25.17
2023-03-02T07:42:20.114Z,26.77
2023-03-02T07:44:47.012Z,20.95
2023-03-02T07:47:13.760Z,34.38
2023-03-02T07:49:40.532Z,33.80
2023-03-02T07:52:07.354Z,27.75
2023-03-02T07:54:34.092Z,31.08
2023-03-02T07:57:01.131Z,36.92
2023-03-02T07:59:28.959Z,32.15
2023-03-02T08:01:57.553Z,26.35
2023-03-02T08:04:24.965Z,23.83
2023-03-02T08:06:52.012Z,25.38
2023-03-02T08:09:18.715Z,27.58
2023-03-02T08:11:46.294Z,28.35
2023-03-02T08:14:12.995Z,31.73
2023-03-02T08:16:40.444Z,28.15
2023-03-02T08:19:07.434Z,34.92
2023-03-02T08:21:34.401Z,22.15
2023-03-02T08:24:01.389Z,36.33
2023-03-02T08:26:28.158Z,22.98
2023-03-02T08:28:54.867Z,35.13
2023-03-02T08:31:21.796Z,31.77
2023-03-02T08:33:48.558Z,23.55
2023-03-02T08:36:18.166Z,27.40
2023-03-02T08:38:46.491Z,17.42
2023-03-02T08:41:16.597Z,18.75
2023-03-02T08:43:43.527Z,25.60
2023-03-02T08:46:12.274Z,29.50
2023-03-02T08:48:39.452Z,20.23
2023-03-02T08:51:09.841Z,19.55
2023-03-02T08:53:39.759Z,23.60
2023-03-02T08:56:35.534Z,24.48
2023-03-02T08:59:06.194Z,22.90
2023-03-02T09:01:36.531Z,27.08
2023-03-02T09:04:06.011Z,20.90
2023-03-02T09:06:37.228Z,22.05
2023-03-02T09:09:06.006Z,26.15
2023-03-02T09:11:33.009Z,26.00
2023-03-02T09:13:59.835Z,25.38
2023-03-02T09:16:27.222Z,23.30
2023-03-02T09:18:54.720Z,25.33
2023-03-02T09:21:22.410Z,32.75
2023-03-02T09:23:49.188Z,26.08
2023-03-02T09:26:15.791Z,19.83
2023-03-02T09:28:42.445Z,23.30
2023-03-02T09:31:09.216Z,23.98
2023-03-02T09:33:36.564Z,27.80
2023-03-02T09:36:11.728Z,21.77
2023-03-02T09:38:38.560Z,22.88
2023-03-02T09:41:20.666Z,22.00
2023-03-02T09:44:15.163Z,21.90
2023-03-02T09:46:50.478Z,17.42
2023-03-02T09:49:30.638Z,15.98
2023-03-02T09:52:22.309Z,15.95
2023-03-02T09:54:48.998Z,22.88
2023-03-02T09:57:26.964Z,19.60
2023-03-02T10:00:18.279Z,22.00
2023-03-02T10:03:00.515Z,20.20
2023-03-02T10:05:40.716Z,21.38
2023-03-02T10:08:13.973Z,22.90
2023-03-02T10:11:02.516Z,23.40
2023-03-02T10:13:35.078Z,26.25
2023-03-02T10:16:08.003Z,21.05
2023-03-02T10:19:17.794Z,24.17
2023-03-02T10:21:47.510Z,21.10
2023-03-02T10:24:40.768Z,22.77
2023-03-02T10:27:19.154Z,23.15
2023-03-02T10:30:06.478Z,23.70
2023-03-02T10:32:38.560Z,22.35
2023-03-02T10:35:18.389Z,25.08
2023-03-02T10:37:47.064Z,21.15
2023-03-02T10:40:43.465Z,22.70
2023-03-02T10:43:28.102Z,25.13
2023-03-02T10:46:03.929Z,18.48
2023-03-02T10:48:30.819Z,22.70
2023-03-02T10:50:59.335Z,21.98
2023-03-02T10:53:26.404Z,18.20
2023-03-02T10:55:54.010Z,21.30
2023-03-02T10:58:29.862Z,18.38
2023-03-02T11:00:58.890Z,18.13
2023-03-02T11:03:26.008Z,21.80
2023-03-02T11:05:53.043Z,23.27
2023-03-02T11:08:23.011Z,20.33
2023-03-02T11:11:00.014Z,20.10
2023-03-02T11:13:33.063Z,20.25
2023-03-02T11:16:00.890Z,19.98
2023-03-02T11:18:38.486Z,18.35
2023-03-02T11:21:11.559Z,19.95
2023-03-02T11:23:49.863Z,22.25
2023-03-02T11:26:31.201Z,21.00
2023-03-02T11:28:57.816Z,18.13
2023-03-02T11:31:35.181Z,16.45
2023-03-02T11:34:23.864Z,16.63
2023-03-02T11:37:18.147Z,16.95
2023-03-02T11:40:02.495Z,19.20
2023-03-02T11:42:31.463Z,19.35
2023-03-02T11:45:11.068Z,14.77
2023-03-02T11:47:38.224Z,19.95
2023-03-02T11:50:10.619Z,17.63
2023-03-02T11:52:41.924Z,15.27
2023-03-02T11:55:22.666Z,15.35
2023-03-02T11:57:53.936Z,15.85
2023-03-02T12:00:41.637Z,13.65
2023-03-02T12:03:17.416Z,13.13
2023-03-02T12:06:01.384Z,13.02
2023-03-02T12:08:32.775Z,13.23
2023-03-02T12:11:26.579Z,9.70
2023-03-02T12:14:03.882Z,11.10
2023-03-02T12:16:43.721Z,11.55
2023-03-02T12:19:16.427Z,12.65
2023-03-02T12:22:10.521Z,11.57
2023-03-02T12:24:39.269Z,10.93
2023-03-02T12:27:22.148Z,12.00
2023-03-02T12:30:11.643Z,10.43
2023-03-02T12:32:38.620Z,8.57
2023-03-02T12:35:08.305Z,10.60
2023-03-02T12:37:53.513Z,15.95
2023-03-02T12:40:45.578Z,11.73
2023-03-02T12:43:21.119Z,9.07
2023-03-02T12:46:21.229Z,11.07
2023-03-02T12:48:57.079Z,7.57
2023-03-02T12:51:30.557Z,7.97
2023-03-02T12:54:06.047Z,7.40
2023-03-02T12:56:33.569Z,7.45
2023-03-02T12:59:00.818Z,8.70
2023-03-02T13:01:31.660Z,9.82
2023-03-02T13:03:59.287Z,7.85
2023-03-02T13:06:30.178Z,7.82
2023-03-02T13:08:59.383Z,8.18
2023-03-02T13:11:31.373Z,8.32
2023-03-02T13:14:03.814Z,8.82
2023-03-02T13:16:33.453Z,7.28
2023-03-02T13:19:03.849Z,8.30
2023-03-02T13:21:35.698Z,8.35
2023-03-02T13:24:02.482Z,13.07
2023-03-02T13:26:37.051Z,9.35
2023-03-02T13:29:23.286Z,10.55
2023-03-02T13:31:50.058Z,9.80
2023-03-02T13:34:27.745Z,15.20
2023-03-02T13:36:55.748Z,13.90
2023-03-02T13:39:28.540Z,10.18
2023-03-02T13:42:03.444Z,8.57
2023-03-02T13:44:35.206Z,7.22
2023-03-02T13:47:02.353Z,9.63
2023-03-02T13:49:34.733Z,7.18
2023-03-02T13:52:14.245Z,12.95
2023-03-02T13:54:44.111Z,17.55
2023-03-02T13:57:19.094Z,14.23
2023-03-02T13:59:45.976Z,12.55
2023-03-02T14:02:25.934Z,13.05
2023-03-02T14:04:53.871Z,12.43
2023-03-02T14:07:21.043Z,12.65
2023-03-02T14:09:48.100Z,11.82
2023-03-02T14:12:28.581Z,13.20
2023-03-02T14:14:59.371Z,11.55
2023-03-02T14:17:26.471Z,11.18
2023-03-02T14:19:53.533Z,12.75
2023-03-02T14:22:21.690Z,12.18
2023-03-02T14:24:49.058Z,12.38
2023-03-02T14:27:17.067Z,12.77
2023-03-02T14:29:45.427Z,14.52
2023-03-02T14:32:14.228Z,13.35
2023-03-02T14:34:41.606Z,13.77
2023-03-02T14:37:13.400Z,11.68
2023-03-02T14:39:43.227Z,13.80
2023-03-02T14:42:17.859Z,10.63
2023-03-02T14:44:46.471Z,11.40
2023-03-02T14:47:16.549Z,13.13
2023-03-02T14:49:44.029Z,18.80
2023-03-02T14:52:29.291Z,14.82
2023-03-02T14:55:12.454Z,14.73
2023-03-02T14:57:39.064Z,15.23
2023-03-02T15:00:12.147Z,12.82
2023-03-02T15:02:39.082Z,17.25
2023-03-02T15:05:06.151Z,17.00
2023-03-02T15:07:32.862Z,11.07
2023-03-02T15:09:59.471Z,16.10
2023-03-02T15:12:26.401Z,15.13
2023-03-02T15:14:53.279Z,13.20
2023-03-02T15:17:19.992Z,15.80
2023-03-02T15:19:47.234Z,20.02
2023-03-02T15:22:14.028Z,15.98
2023-03-02T15:24:40.928Z,19.08
2023-03-02T15:27:07.909Z,15.30
2023-03-02T15:29:34.710Z,20.60
2023-03-02T15:32:01.498Z,14.68
2023-03-02T15:34:28.169Z,14.88
2023-03-02T15:36:54.999Z,20.50
2023-03-02T15:39:21.709Z,18.90
2023-03-02T15:41:48.369Z,15.27
2023-03-02T15:44:22.461Z,15.40
2023-03-02T15:46:52.612Z,16.45
2023-03-02T15:49:23.062Z,15.85
2023-03-02T15:51:52.034Z,18.45
2023-03-02T15:54:19.120Z,18.95
2023-03-02T15:56:49.585Z,14.68
2023-03-02T15:59:16.447Z,15.63
2023-03-02T16:01:43.180Z,17.67
2023-03-02T16:04:10.269Z,16.08
2023-03-02T16:06:37.253Z,15.15
2023-03-02T16:09:04.544Z,17.15
2023-03-02T16:11:31.772Z,15.00
2023-03-02T16:13:58.354Z,15.25
2023-03-02T16:16:26.473Z,15.75
2023-03-02T16:18:55.274Z,14.68
2023-03-02T16:21:24.287Z,14.55
2023-03-02T16:23:52.660Z,16.48
2023-03-02T16:26:21.503Z,16.10
2023-03-02T16:28:48.486Z,15.18
2023-03-02T16:31:18.397Z,15.32
2023-03-02T16:33:46.138Z,15.57
2023-03-02T16:36:14.651Z,18.85
2023-03-02T16:38:41.972Z,14.75
2023-03-02T16:41:18.189Z,15.20
2023-03-02T16:43:50.347Z,14.88
2023-03-02T16:46:18.424Z,15.45
2023-03-02T16:49:04.313Z,16.00
2023-03-02T16:51:31.669Z,11.15
2023-03-02T16:53:58.792Z,13.27
2023-03-02T16:56:47.783Z,13.82
2023-03-02T16:59:15.951Z,13.82
2023-03-02T17:01:43.218Z,15.27
2023-03-02T17:04:10.046Z,14.43
2023-03-02T17:06:36.788Z,16.27
2023-03-02T17:09:03.615Z,15.57
2023-03-02T17:11:31.860Z,14.25
2023-03-02T17:13:58.436Z,14.10
2023-03-02T17:16:25.497Z,14.77
2023-03-02T17:18:52.150Z,21.27
2023-03-02T17:21:19.991Z,18.13
2023-03-02T17:23:48.474Z,15.95
2023-03-02T17:26:17.158Z,13.13
2023-03-02T17:28:43.772Z,15.30
2023-03-02T17:31:10.764Z,16.13
2023-03-02T17:33:38.624Z,16.48
2023-03-02T17:36:08.653Z,16.65
2023-03-02T17:38:35.769Z,17.10
2023-03-02T17:41:04.821Z,20.02
2023-03-02T17:43:36.433Z,15.25
2023-03-02T17:46:17.110Z,16.48
2023-03-02T17:48:44.006Z,17.55
2023-03-02T17:51:11.995Z,14.65
2023-03-02T17:53:38.891Z,17.15
2023-03-02T17:56:07.838Z,19.70
2023-03-02T17:58:44.640Z,20.38
2023-03-02T18:01:14.017Z,17.35
2023-03-02T18:03:41.016Z,17.50
2023-03-02T18:06:08.004Z,18.40
2023-03-02T18:08:34.640Z,16.40
2023-03-02T18:11:01.290Z,17.65
2023-03-02T18:13:28.214Z,14.35
2023-03-02T18:15:55.299Z,25.05
2023-03-02T18:18:22.236Z,17.65
2023-03-02T18:20:48.898Z,16.83
2023-03-02T18:23:16.661Z,15.93
2023-03-02T18:25:43.372Z,18.73
2023-03-02T18:28:10.246Z,19.73
2023-03-02T18:30:37.086Z,18.08
2023-03-02T18:33:03.986Z,18.00
2023-03-02T18:35:32.230Z,14.25
2023-03-02T18:37:59.375Z,17.30
2023-03-02T18:40:26.191Z,19.77
2023-03-02T18:42:53.127Z,17.05
2023-03-02T18:45:26.597Z,16.58
2023-03-02T18:47:53.672Z,21.88
2023-03-02T18:50:20.631Z,21.65
2023-03-02T18:52:47.656Z,16.88
2023-03-02T18:55:15.549Z,18.27
2023-03-02T18:57:42.337Z,19.38
2023-03-02T19:00:17.069Z,22.70
2023-03-02T19:02:43.840Z,20.33
2023-03-02T19:05:13.480Z,20.10
2023-03-02T19:07:40.317Z,17.65
2023-03-02T19:10:07.897Z,22.30
2023-03-02T19:12:35.490Z,20.98
2023-03-02T19:15:03.717Z,21.80
2023-03-02T19:17:30.434Z,21.38
2023-03-02T19:19:57.278Z,19.85
2023-03-02T19:22:23.909Z,18.85
2023-03-02T19:24:50.530Z,19.92
2023-03-02T19:27:17.267Z,20.38
2023-03-02T19:29:43.908Z,21.98
2023-03-02T19:32:14.304Z,16.80
2023-03-02T19:34:42.586Z,23.40
2023-03-02T19:37:09.379Z,18.80
2023-03-02T19:39:35.998Z,29.42
2023-03-02T19:42:21.085Z,24.00
2023-03-02T19:44:47.753Z,24.80
2023-03-02T19:47:14.630Z,30.77
2023-03-02T19:49:41.459Z,33.95
2023-03-02T19:52:09.249Z,28.92
2023-03-02T19:54:36.033Z,34.20
2023-03-02T19:57:03.703Z,32.60
2023-03-02T19:59:32.520Z,37.58
2023-03-02T20:01:59.580Z,36.45
2023-03-02T20:04:26.793Z,37.05
2023-03-02T20:06:53.590Z,37.05
2023-03-02T20:09:21.771Z,40.08
2023-03-02T20:11:48.389Z,28.45
2023-03-02T20:14:31.345Z,42.35
2023-03-02T20:17:00.208Z,38.83
2023-03-02T20:19:26.931Z,49.88
2023-03-02T20:21:53.680Z,37.88
2023-03-02T20:24:20.536Z,39.10
2023-03-02T20:26:49.502Z,41.70
2023-03-02T20:29:17.203Z,37.65
2023-03-02T20:31:44.667Z,51.08
2023-03-02T20:34:14.358Z,40.30
2023-03-02T20:36:40.993Z,36.20
2023-03-02T20:39:12.820Z,41.33
2023-03-02T20:41:39.762Z,42.72
2023-03-02T20:44:06.536Z,36.00
2023-03-02T20:46:39.357Z,38.53
2023-03-02T20:49:09.610Z,38.33
2023-03-02T20:51:37.669Z,34.67
2023-03-02T20:54:05.520Z,34.40
2023-03-02T20:56:33.480Z,30.13
2023-03-02T20:59:00.366Z,39.55
2023-03-02T21:01:29.771Z,36.85
2023-03-02T21:03:56.639Z,38.95
2023-03-02T21:06:24.192Z,34.25
2023-03-02T21:08:53.354Z,37.63
2023-03-02T21:11:21.144Z,39.47
2023-03-02T21:13:48.737Z,37.78
2023-03-02T21:16:28.422Z,33.13
2023-03-02T21:18:56.278Z,40.20
2023-03-02T21:21:35.707Z,36.70
2023-03-02T21:24:11.326Z,36.13
2023-03-02T21:26:41.724Z,33.35
2023-03-02T21:29:11.737Z,33.65
2023-03-02T21:31:40.616Z,39.45
2023-03-02T21:34:08.330Z,39.88
2023-03-02T21:36:39.910Z,37.20
2023-03-02T21:39:09.832Z,30.77
2023-03-02T21:41:36.770Z,30.55
2023-03-02T21:44:05.846Z,31.13
2023-03-02T21:46:34.394Z,19.58
2023-03-02T21:49:01.109Z,21.73
2023-03-02T21:51:28.055Z,22.83
2023-03-02T21:53:54.770Z,20.67
2023-03-02T21:56:24.836Z,23.60
2023-03-02T21:58:53.865Z,20.15
2023-03-02T22:01:21.096Z,17.50
2023-03-02T22:03:48.168Z,19.15
2023-03-02T22:06:21.166Z,15.50
2023-03-02T22:08:48.423Z,17.55
2023-03-02T22:11:24.887Z,13.77
2023-03-02T22:13:53.925Z,20.05
2023-03-02T22:16:23.569Z,16.08
2023-03-02T22:18:57.809Z,14.02
2023-03-02T22:21:30.284Z,18.15
2023-03-02T22:24:06.151Z,14.77
2023-03-02T22:26:35.365Z,13.75
2023-03-02T22:29:32.811Z,11.55
2023-03-02T22:32:13.044Z,11.15
2023-03-02T22:34:41.026Z,12.48
2023-03-02T22:37:14.536Z,13.13
2023-03-02T22:39:42.435Z,9.65
2023-03-02T22:42:24.400Z,13.93
2023-03-02T22:44:58.856Z,10.55
2023-03-02T22:47:25.829Z,14.63
2023-03-02T22:50:16.862Z,11.90
2023-03-02T22:52:45.557Z,15.20
2023-03-02T22:55:35.702Z,10.63
2023-03-02T22:58:42.634Z,12.85
2023-03-02T23:01:36.797Z,11.30
2023-03-02T23:04:16.098Z,21.77
2023-03-02T23:06:51.852Z,19.98
2023-03-02T23:09:22.312Z,24.52
2023-03-02T23:11:50.244Z,18.27
2023-03-02T23:14:38.626Z,23.15
2023-03-02T23:17:19.915Z,20.17
2023-03-02T23:19:46.981Z,25.02
2023-03-02T23:22:14.087Z,21.13
2023-03-02T23:24:40.661Z,21.17
2023-03-02T23:27:07.809Z,17.75
2023-03-02T23:29:35.373Z,18.42
2023-03-02T23:32:02.793Z,22.00
2023-03-02T23:34:31.325Z,20.85
2023-03-02T23:36:59.625Z,21.08
2023-03-02T23:39:27.445Z,25.30
2023-03-02T23:41:54.244Z,22.88
2023-03-02T23:44:21.205Z,26.58
2023-03-02T23:46:48.255Z,24.95
2023-03-02T23:49:15.364Z,27.42
2023-03-02T23:51:42.259Z,17.33
2023-03-02T23:54:09.018Z,22.38
2023-03-02T23:56:35.716Z,26.65
2023-03-02T23:59:02.887Z,29.10
